sensor_id;sensor_type;location;lat;lon;timestamp;temperature;humidity
77839;SHT31;67034;43.226;27.932;2023-04-24T00:00:38;7.40;79.82
77839;SHT31;67034;43.226;27.932;2023-04-24T00:03:06;7.38;79.72
77839;SHT31;67034;43.226;27.932;2023-04-24T00:05:32;7.32;79.96
77839;SHT31;67034;43.226;27.932;2023-04-24T00:07:58;7.18;80.66
77839;SHT31;67034;43.226;27.932;2023-04-24T00:10:24;7.10;80.94
77839;SHT31;67034;43.226;27.932;2023-04-24T00:12:50;7.06;81.21
77839;SHT31;67034;43.226;27.932;2023-04-24T00:15:15;6.99;81.35
77839;SHT31;67034;43.226;27.932;2023-04-24T00:17:42;7.28;80.64
77839;SHT31;67034;43.226;27.932;2023-04-24T00:20:09;7.30;80.23
77839;SHT31;67034;43.226;27.932;2023-04-24T00:22:35;7.26;80.27
77839;SHT31;67034;43.226;27.932;2023-04-24T00:25:01;7.18;80.48
77839;SHT31;67034;43.226;27.932;2023-04-24T00:27:27;7.16;80.62
77839;SHT31;67034;43.226;27.932;2023-04-24T00:29:53;7.16;80.53
77839;SHT31;67034;43.226;27.932;2023-04-24T00:32:18;7.08;80.88
77839;SHT31;67034;43.226;27.932;2023-04-24T00:34:46;7.10;81.06
77839;SHT31;67034;43.226;27.932;2023-04-24T00:37:11;7.07;81.01
77839;SHT31;67034;43.226;27.932;2023-04-24T00:39:37;7.01;81.41
77839;SHT31;67034;43.226;27.932;2023-04-24T00:42:03;6.90;81.70
77839;SHT31;67034;43.226;27.932;2023-04-24T00:44:31;6.87;81.83
77839;SHT31;67034;43.226;27.932;2023-04-24T00:46:58;6.79;82.25
77839;SHT31;67034;43.226;27.932;2023-04-24T00:49:24;6.83;82.33
77839;SHT31;67034;43.226;27.932;2023-04-24T00:51:51;6.92;81.81
77839;SHT31;67034;43.226;27.932;2023-04-24T00:54:17;6.95;81.87
77839;SHT31;67034;43.226;27.932;2023-04-24T00:56:44;6.96;81.72
77839;SHT31;67034;43.226;27.932;2023-04-24T00:59:11;7.01;81.47
77839;SHT31;67034;43.226;27.932;2023-04-24T01:01:37;7.04;81.50
77839;SHT31;67034;43.226;27.932;2023-04-24T01:04:07;7.10;81.33
77839;SHT31;67034;43.226;27.932;2023-04-24T01:06:36;7.04;81.21
77839;SHT31;67034;43.226;27.932;2023-04-24T01:09:05;6.99;81.30
77839;SHT31;67034;43.226;27.932;2023-04-24T01:11:33;6.99;81.61
77839;SHT31;67034;43.226;27.932;2023-04-24T01:13:59;6.92;81.85
77839;SHT31;67034;43.226;27.932;2023-04-24T01:16:25;6.95;81.85
77839;SHT31;67034;43.226;27.932;2023-04-24T01:18:51;6.90;81.75
77839;SHT31;67034;43.226;27.932;2023-04-24T01:21:18;6.80;82.12
77839;SHT31;67034;43.226;27.932;2023-04-24T01:23:45;6.59;82.56
77839;SHT31;67034;43.226;27.932;2023-04-24T01:26:11;6.64;82.78
77839;SHT31;67034;43.226;27.932;2023-04-24T01:28:37;6.86;82.37
77839;SHT31;67034;43.226;27.932;2023-04-24T01:31:03;6.95;81.76
77839;SHT31;67034;43.226;27.932;2023-04-24T01:33:29;7.06;81.37
77839;SHT31;67034;43.226;27.932;2023-04-24T01:35:55;7.01;81.56
77839;SHT31;67034;43.226;27.932;2023-04-24T01:38:20;7.00;81.51
77839;SHT31;67034;43.226;27.932;2023-04-24T01:40:49;7.01;81.33
77839;SHT31;67034;43.226;27.932;2023-04-24T01:43:15;6.89;81.73
77839;SHT31;67034;43.226;27.932;2023-04-24T01:45:41;6.82;82.15
77839;SHT31;67034;43.226;27.932;2023-04-24T01:48:06;6.83;82.07
77839;SHT31;67034;43.226;27.932;2023-04-24T01:50:32;6.75;82.41
77839;SHT31;67034;43.226;27.932;2023-04-24T01:52:58;6.69;82.61
77839;SHT31;67034;43.226;27.932;2023-04-24T01:55:23;6.64;82.78
77839;SHT31;67034;43.226;27.932;2023-04-24T01:57:52;6.56;83.13
77839;SHT31;67034;43.226;27.932;2023-04-24T02:00:20;6.44;83.66
77839;SHT31;67034;43.226;27.932;2023-04-24T02:02:46;6.37;83.89
77839;SHT31;67034;43.226;27.932;2023-04-24T02:05:11;6.58;83.33
77839;SHT31;67034;43.226;27.932;2023-04-24T02:07:37;6.72;82.81
77839;SHT31;67034;43.226;27.932;2023-04-24T02:10:03;6.90;81.97
77839;SHT31;67034;43.226;27.932;2023-04-24T02:12:29;6.72;82.62
77839;SHT31;67034;43.226;27.932;2023-04-24T02:14:56;6.64;82.82
77839;SHT31;67034;43.226;27.932;2023-04-24T02:17:22;6.71;82.64
77839;SHT31;67034;43.226;27.932;2023-04-24T02:19:47;6.66;82.49
77839;SHT31;67034;43.226;27.932;2023-04-24T02:22:13;6.66;82.62
77839;SHT31;67034;43.226;27.932;2023-04-24T02:24:39;6.62;82.71
77839;SHT31;67034;43.226;27.932;2023-04-24T02:27:04;6.83;82.11
77839;SHT31;67034;43.226;27.932;2023-04-24T02:29:31;6.56;82.90
77839;SHT31;67034;43.226;27.932;2023-04-24T02:31:58;6.45;83.31
77839;SHT31;67034;43.226;27.932;2023-04-24T02:34:23;6.38;83.52
77839;SHT31;67034;43.226;27.932;2023-04-24T02:36:50;6.31;83.81
77839;SHT31;67034;43.226;27.932;2023-04-24T02:39:15;6.25;83.73
77839;SHT31;67034;43.226;27.932;2023-04-24T02:41:44;6.35;83.44
77839;SHT31;67034;43.226;27.932;2023-04-24T02:44:09;6.38;82.92
77839;SHT31;67034;43.226;27.932;2023-04-24T02:46:35;6.59;82.44
77839;SHT31;67034;43.226;27.932;2023-04-24T02:49:02;6.77;82.15
77839;SHT31;67034;43.226;27.932;2023-04-24T02:51:28;6.76;82.40
77839;SHT31;67034;43.226;27.932;2023-04-24T02:53:53;6.69;82.04
77839;SHT31;67034;43.226;27.932;2023-04-24T02:56:19;6.72;81.84
77839;SHT31;67034;43.226;27.932;2023-04-24T02:58:45;6.66;82.11
77839;SHT31;67034;43.226;27.932;2023-04-24T03:01:10;6.59;82.52
77839;SHT31;67034;43.226;27.932;2023-04-24T03:03:36;6.56;82.70
77839;SHT31;67034;43.226;27.932;2023-04-24T03:06:03;6.64;82.50
77839;SHT31;67034;43.226;27.932;2023-04-24T03:08:31;6.64;82.51
77839;SHT31;67034;43.226;27.932;2023-04-24T03:10:56;6.55;82.68
77839;SHT31;67034;43.226;27.932;2023-04-24T03:13:22;6.39;83.37
77839;SHT31;67034;43.226;27.932;2023-04-24T03:15:47;6.37;83.66
77839;SHT31;67034;43.226;27.932;2023-04-24T03:18:13;6.32;83.83
77839;SHT31;67034;43.226;27.932;2023-04-24T03:20:39;6.20;84.44
77839;SHT31;67034;43.226;27.932;2023-04-24T03:23:06;6.49;83.70
77839;SHT31;67034;43.226;27.932;2023-04-24T03:25:31;6.89;82.23
77839;SHT31;67034;43.226;27.932;2023-04-24T03:27:57;7.13;81.33
77839;SHT31;67034;43.226;27.932;2023-04-24T03:30:23;7.23;81.31
77839;SHT31;67034;43.226;27.932;2023-04-24T03:32:48;7.45;80.41
77839;SHT31;67034;43.226;27.932;2023-04-24T03:35:14;7.59;79.57
77839;SHT31;67034;43.226;27.932;2023-04-24T03:37:39;7.68;79.49
77839;SHT31;67034;43.226;27.932;2023-04-24T03:40:08;7.74;79.39
77839;SHT31;67034;43.226;27.932;2023-04-24T03:42:34;7.61;80.27
77839;SHT31;67034;43.226;27.932;2023-04-24T03:45:00;7.43;80.70
77839;SHT31;67034;43.226;27.932;2023-04-24T03:47:25;7.31;81.32
77839;SHT31;67034;43.226;27.932;2023-04-24T03:49:51;7.13;82.39
77839;SHT31;67034;43.226;27.932;2023-04-24T03:52:17;7.10;83.07
77839;SHT31;67034;43.226;27.932;2023-04-24T03:54:43;6.97;83.52
77839;SHT31;67034;43.226;27.932;2023-04-24T03:57:10;7.00;84.01
77839;SHT31;67034;43.226;27.932;2023-04-24T03:59:36;7.07;84.25
77839;SHT31;67034;43.226;27.932;2023-04-24T04:02:01;7.10;84.15
77839;SHT31;67034;43.226;27.932;2023-04-24T04:04:27;7.14;83.92
77839;SHT31;67034;43.226;27.932;2023-04-24T04:06:53;7.45;83.58
77839;SHT31;67034;43.226;27.932;2023-04-24T04:09:19;7.78;82.48
77839;SHT31;67034;43.226;27.932;2023-04-24T04:11:44;7.85;82.43
77839;SHT31;67034;43.226;27.932;2023-04-24T04:14:12;8.10;82.20
77839;SHT31;67034;43.226;27.932;2023-04-24T04:16:37;8.33;81.83
77839;SHT31;67034;43.226;27.932;2023-04-24T04:19:04;8.72;81.25
77839;SHT31;67034;43.226;27.932;2023-04-24T04:21:30;9.09;80.22
77839;SHT31;67034;43.226;27.932;2023-04-24T04:23:57;9.27;79.29
77839;SHT31;67034;43.226;27.932;2023-04-24T04:26:23;9.44;79.31
77839;SHT31;67034;43.226;27.932;2023-04-24T04:28:51;9.71;78.39
77839;SHT31;67034;43.226;27.932;2023-04-24T04:31:18;9.71;78.21
77839;SHT31;67034;43.226;27.932;2023-04-24T04:33:44;9.78;78.10
77839;SHT31;67034;43.226;27.932;2023-04-24T04:36:09;9.94;78.56
77839;SHT31;67034;43.226;27.932;2023-04-24T04:38:35;9.98;78.08
77839;SHT31;67034;43.226;27.932;2023-04-24T04:41:02;10.02;78.07
77839;SHT31;67034;43.226;27.932;2023-04-24T04:43:28;9.87;79.00
77839;SHT31;67034;43.226;27.932;2023-04-24T04:45:54;10.05;80.16
77839;SHT31;67034;43.226;27.932;2023-04-24T04:48:22;10.20;80.21
77839;SHT31;67034;43.226;27.932;2023-04-24T04:50:48;10.42;79.97
77839;SHT31;67034;43.226;27.932;2023-04-24T04:53:14;10.57;80.14
77839;SHT31;67034;43.226;27.932;2023-04-24T04:55:39;10.81;79.22
77839;SHT31;67034;43.226;27.932;2023-04-24T04:58:05;10.77;79.01
77839;SHT31;67034;43.226;27.932;2023-04-24T05:00:31;10.96;78.70
77839;SHT31;67034;43.226;27.932;2023-04-24T05:03:01;11.08;77.60
77839;SHT31;67034;43.226;27.932;2023-04-24T05:05:28;11.04;77.89
77839;SHT31;67034;43.226;27.932;2023-04-24T05:07:54;10.97;78.36
77839;SHT31;67034;43.226;27.932;2023-04-24T05:10:19;11.17;77.53
77839;SHT31;67034;43.226;27.932;2023-04-24T05:12:45;11.24;77.25
77839;SHT31;67034;43.226;27.932;2023-04-24T05:15:11;11.12;78.01
77839;SHT31;67034;43.226;27.932;2023-04-24T05:17:37;11.28;77.68
77839;SHT31;67034;43.226;27.932;2023-04-24T05:20:03;11.39;76.86
77839;SHT31;67034;43.226;27.932;2023-04-24T05:22:33;11.29;77.86
77839;SHT31;67034;43.226;27.932;2023-04-24T05:24:59;11.49;76.48
77839;SHT31;67034;43.226;27.932;2023-04-24T05:27:24;11.46;76.81
77839;SHT31;67034;43.226;27.932;2023-04-24T05:29:50;11.34;78.06
77839;SHT31;67034;43.226;27.932;2023-04-24T05:32:16;11.51;77.64
77839;SHT31;67034;43.226;27.932;2023-04-24T05:34:42;11.58;77.65
77839;SHT31;67034;43.226;27.932;2023-04-24T05:37:08;11.66;75.20
77839;SHT31;67034;43.226;27.932;2023-04-24T05:39:36;11.75;75.58
77839;SHT31;67034;43.226;27.932;2023-04-24T05:42:03;11.66;74.87
77839;SHT31;67034;43.226;27.932;2023-04-24T05:44:30;11.75;75.07
77839;SHT31;67034;43.226;27.932;2023-04-24T05:46:55;11.83;73.71
77839;SHT31;67034;43.226;27.932;2023-04-24T05:49:22;11.82;75.21
77839;SHT31;67034;43.226;27.932;2023-04-24T05:51:47;11.89;75.15
77839;SHT31;67034;43.226;27.932;2023-04-24T05:54:13;11.80;74.04
77839;SHT31;67034;43.226;27.932;2023-04-24T05:56:41;11.77;74.96
77839;SHT31;67034;43.226;27.932;2023-04-24T05:59:06;11.82;76.12
77839;SHT31;67034;43.226;27.932;2023-04-24T06:01:32;11.98;75.16
77839;SHT31;67034;43.226;27.932;2023-04-24T06:03:58;11.94;72.69
77839;SHT31;67034;43.226;27.932;2023-04-24T06:06:24;12.03;73.32
77839;SHT31;67034;43.226;27.932;2023-04-24T06:08:51;12.04;73.64
77839;SHT31;67034;43.226;27.932;2023-04-24T06:11:16;12.12;72.90
77839;SHT31;67034;43.226;27.932;2023-04-24T06:13:44;12.28;73.29
77839;SHT31;67034;43.226;27.932;2023-04-24T06:16:09;12.06;72.91
77839;SHT31;67034;43.226;27.932;2023-04-24T06:18:35;12.03;73.25
77839;SHT31;67034;43.226;27.932;2023-04-24T06:21:01;12.10;72.47
77839;SHT31;67034;43.226;27.932;2023-04-24T06:23:26;12.14;73.20
77839;SHT31;67034;43.226;27.932;2023-04-24T06:25:52;12.07;73.67
77839;SHT31;67034;43.226;27.932;2023-04-24T06:28:18;12.07;74.38
77839;SHT31;67034;43.226;27.932;2023-04-24T06:30:45;12.21;73.20
77839;SHT31;67034;43.226;27.932;2023-04-24T06:33:11;12.17;73.82
77839;SHT31;67034;43.226;27.932;2023-04-24T06:35:39;12.28;74.59
77839;SHT31;67034;43.226;27.932;2023-04-24T06:38:06;12.46;73.70
77839;SHT31;67034;43.226;27.932;2023-04-24T06:40:31;12.59;73.94
77839;SHT31;67034;43.226;27.932;2023-04-24T06:42:57;12.61;72.65
77839;SHT31;67034;43.226;27.932;2023-04-24T06:45:25;12.54;74.00
77839;SHT31;67034;43.226;27.932;2023-04-24T06:47:53;12.66;72.97
77839;SHT31;67034;43.226;27.932;2023-04-24T06:50:19;12.69;72.10
77839;SHT31;67034;43.226;27.932;2023-04-24T06:52:44;12.82;71.94
77839;SHT31;67034;43.226;27.932;2023-04-24T06:55:11;12.81;72.87
77839;SHT31;67034;43.226;27.932;2023-04-24T06:57:36;12.75;74.19
77839;SHT31;67034;43.226;27.932;2023-04-24T07:00:03;12.89;72.82
77839;SHT31;67034;43.226;27.932;2023-04-24T07:02:30;12.92;71.73
77839;SHT31;67034;43.226;27.932;2023-04-24T07:04:57;12.82;71.77
77839;SHT31;67034;43.226;27.932;2023-04-24T07:07:23;12.95;72.18
77839;SHT31;67034;43.226;27.932;2023-04-24T07:09:49;12.66;73.46
77839;SHT31;67034;43.226;27.932;2023-04-24T07:12:16;12.69;71.85
77839;SHT31;67034;43.226;27.932;2023-04-24T07:14:42;12.68;73.26
77839;SHT31;67034;43.226;27.932;2023-04-24T07:17:08;12.91;72.78
77839;SHT31;67034;43.226;27.932;2023-04-24T07:19:34;12.93;72.93
77839;SHT31;67034;43.226;27.932;2023-04-24T07:22:04;12.86;72.76
77839;SHT31;67034;43.226;27.932;2023-04-24T07:24:29;12.96;72.89
77839;SHT31;67034;43.226;27.932;2023-04-24T07:26:57;12.78;72.39
77839;SHT31;67034;43.226;27.932;2023-04-24T07:29:23;12.85;73.87
77839;SHT31;67034;43.226;27.932;2023-04-24T07:31:49;12.93;75.38
77839;SHT31;67034;43.226;27.932;2023-04-24T07:34:14;13.17;75.18
77839;SHT31;67034;43.226;27.932;2023-04-24T07:36:41;13.23;75.09
77839;SHT31;67034;43.226;27.932;2023-04-24T07:39:08;13.46;74.75
77839;SHT31;67034;43.226;27.932;2023-04-24T07:41:34;13.26;73.05
77839;SHT31;67034;43.226;27.932;2023-04-24T07:44:00;13.24;73.18
77839;SHT31;67034;43.226;27.932;2023-04-24T07:46:26;13.30;73.34
77839;SHT31;67034;43.226;27.932;2023-04-24T07:48:55;13.46;73.25
77839;SHT31;67034;43.226;27.932;2023-04-24T07:51:21;13.58;71.96
77839;SHT31;67034;43.226;27.932;2023-04-24T07:53:47;13.57;73.88
77839;SHT31;67034;43.226;27.932;2023-04-24T07:56:14;13.44;74.96
77839;SHT31;67034;43.226;27.932;2023-04-24T07:58:40;13.37;73.79
77839;SHT31;67034;43.226;27.932;2023-04-24T08:01:06;13.54;75.28
77839;SHT31;67034;43.226;27.932;2023-04-24T08:03:31;13.75;72.92
77839;SHT31;67034;43.226;27.932;2023-04-24T08:05:57;13.79;72.81
77839;SHT31;67034;43.226;27.932;2023-04-24T08:08:23;13.81;72.77
77839;SHT31;67034;43.226;27.932;2023-04-24T08:10:49;13.99;71.04
77839;SHT31;67034;43.226;27.932;2023-04-24T08:13:16;14.04;70.49
77839;SHT31;67034;43.226;27.932;2023-04-24T08:15:42;13.85;71.50
77839;SHT31;67034;43.226;27.932;2023-04-24T08:18:08;13.62;72.12
77839;SHT31;67034;43.226;27.932;2023-04-24T08:20:33;13.71;73.74
77839;SHT31;67034;43.226;27.932;2023-04-24T08:22:59;13.61;72.75
77839;SHT31;67034;43.226;27.932;2023-04-24T08:25:25;13.37;73.49
77839;SHT31;67034;43.226;27.932;2023-04-24T08:27:51;13.17;74.85
77839;SHT31;67034;43.226;27.932;2023-04-24T08:30:18;13.37;75.63
77839;SHT31;67034;43.226;27.932;2023-04-24T08:32:44;13.58;74.53
77839;SHT31;67034;43.226;27.932;2023-04-24T08:35:10;13.85;73.07
77839;SHT31;67034;43.226;27.932;2023-04-24T08:37:36;13.74;74.07
77839;SHT31;67034;43.226;27.932;2023-04-24T08:40:09;14.15;74.78
77839;SHT31;67034;43.226;27.932;2023-04-24T08:42:37;14.16;72.12
77839;SHT31;67034;43.226;27.932;2023-04-24T08:45:04;14.12;73.39
77839;SHT31;67034;43.226;27.932;2023-04-24T08:47:33;13.97;73.33
77839;SHT31;67034;43.226;27.932;2023-04-24T08:49:59;14.29;72.76
77839;SHT31;67034;43.226;27.932;2023-04-24T08:52:28;14.61;70.57
77839;SHT31;67034;43.226;27.932;2023-04-24T08:54:54;14.89;69.06
77839;SHT31;67034;43.226;27.932;2023-04-24T08:57:20;14.91;69.11
77839;SHT31;67034;43.226;27.932;2023-04-24T08:59:47;15.17;69.04
77839;SHT31;67034;43.226;27.932;2023-04-24T09:02:13;15.38;66.02
77839;SHT31;67034;43.226;27.932;2023-04-24T09:04:43;15.49;66.09
77839;SHT31;67034;43.226;27.932;2023-04-24T09:07:10;15.65;66.16
77839;SHT31;67034;43.226;27.932;2023-04-24T09:09:38;15.46;66.58
77839;SHT31;67034;43.226;27.932;2023-04-24T09:12:04;15.65;68.22
77839;SHT31;67034;43.226;27.932;2023-04-24T09:14:31;15.08;67.68
77839;SHT31;67034;43.226;27.932;2023-04-24T09:16:57;14.70;66.36
77839;SHT31;67034;43.226;27.932;2023-04-24T09:19:23;14.76;69.05
77839;SHT31;67034;43.226;27.932;2023-04-24T09:21:52;14.97;69.08
77839;SHT31;67034;43.226;27.932;2023-04-24T09:24:20;15.05;68.76
77839;SHT31;67034;43.226;27.932;2023-04-24T09:26:48;15.29;67.46
77839;SHT31;67034;43.226;27.932;2023-04-24T09:29:15;15.50;66.53
77839;SHT31;67034;43.226;27.932;2023-04-24T09:31:42;15.32;64.80
77839;SHT31;67034;43.226;27.932;2023-04-24T09:34:08;14.51;69.36
77839;SHT31;67034;43.226;27.932;2023-04-24T09:36:35;14.77;69.87
77839;SHT31;67034;43.226;27.932;2023-04-24T09:39:06;14.53;69.33
77839;SHT31;67034;43.226;27.932;2023-04-24T09:41:43;14.47;71.18
77839;SHT31;67034;43.226;27.932;2023-04-24T09:44:12;15.15;68.91
77839;SHT31;67034;43.226;27.932;2023-04-24T09:46:38;15.31;65.25
77839;SHT31;67034;43.226;27.932;2023-04-24T09:49:08;14.94;68.29
77839;SHT31;67034;43.226;27.932;2023-04-24T09:51:36;15.22;68.69
77839;SHT31;67034;43.226;27.932;2023-04-24T09:54:02;14.89;68.29
77839;SHT31;67034;43.226;27.932;2023-04-24T09:56:32;14.73;69.26
77839;SHT31;67034;43.226;27.932;2023-04-24T09:59:04;14.99;68.67
77839;SHT31;67034;43.226;27.932;2023-04-24T10:01:30;15.56;69.77
77839;SHT31;67034;43.226;27.932;2023-04-24T10:03:56;15.71;66.38
77839;SHT31;67034;43.226;27.932;2023-04-24T10:06:22;16.22;66.30
77839;SHT31;67034;43.226;27.932;2023-04-24T10:08:48;16.28;65.03
77839;SHT31;67034;43.226;27.932;2023-04-24T10:11:16;16.79;65.27
77839;SHT31;67034;43.226;27.932;2023-04-24T10:13:43;16.52;64.35
77839;SHT31;67034;43.226;27.932;2023-04-24T10:16:10;15.65;65.72
77839;SHT31;67034;43.226;27.932;2023-04-24T10:18:35;15.59;66.88
77839;SHT31;67034;43.226;27.932;2023-04-24T10:21:02;15.83;66.02
77839;SHT31;67034;43.226;27.932;2023-04-24T10:23:28;15.83;68.20
77839;SHT31;67034;43.226;27.932;2023-04-24T10:25:55;16.29;66.78
77839;SHT31;67034;43.226;27.932;2023-04-24T10:28:22;16.63;63.92
77839;SHT31;67034;43.226;27.932;2023-04-24T10:30:51;16.52;63.05
77839;SHT31;67034;43.226;27.932;2023-04-24T10:33:21;16.40;65.06
77839;SHT31;67034;43.226;27.932;2023-04-24T10:35:49;16.71;63.15
77839;SHT31;67034;43.226;27.932;2023-04-24T10:38:21;16.79;63.21
77839;SHT31;67034;43.226;27.932;2023-04-24T10:40:50;16.90;62.58
77839;SHT31;67034;43.226;27.932;2023-04-24T10:43:17;16.77;62.90
77839;SHT31;67034;43.226;27.932;2023-04-24T10:46:01;17.14;62.77
77839;SHT31;67034;43.226;27.932;2023-04-24T10:48:28;17.54;60.83
77839;SHT31;67034;43.226;27.932;2023-04-24T10:50:54;16.77;62.82
77839;SHT31;67034;43.226;27.932;2023-04-24T10:53:22;17.30;63.01
77839;SHT31;67034;43.226;27.932;2023-04-24T10:55:51;17.41;61.02
77839;SHT31;67034;43.226;27.932;2023-04-24T10:58:18;17.07;61.73
77839;SHT31;67034;43.226;27.932;2023-04-24T11:00:56;17.72;62.84
77839;SHT31;67034;43.226;27.932;2023-04-24T11:03:25;17.67;61.74
77839;SHT31;67034;43.226;27.932;2023-04-24T11:05:53;18.00;59.87
77839;SHT31;67034;43.226;27.932;2023-04-24T11:08:26;17.82;59.39
77839;SHT31;67034;43.226;27.932;2023-04-24T11:11:00;17.44;61.82
77839;SHT31;67034;43.226;27.932;2023-04-24T11:13:27;17.32;62.79
77839;SHT31;67034;43.226;27.932;2023-04-24T11:16:15;16.79;63.20
77839;SHT31;67034;43.226;27.932;2023-04-24T11:18:43;17.09;62.70
77839;SHT31;67034;43.226;27.932;2023-04-24T11:21:17;17.19;61.46
77839;SHT31;67034;43.226;27.932;2023-04-24T11:23:43;17.03;62.52
77839;SHT31;67034;43.226;27.932;2023-04-24T11:26:10;16.94;62.77
77839;SHT31;67034;43.226;27.932;2023-04-24T11:28:37;17.31;62.10
77839;SHT31;67034;43.226;27.932;2023-04-24T11:31:36;17.14;61.52
77839;SHT31;67034;43.226;27.932;2023-04-24T11:34:08;16.99;62.35
77839;SHT31;67034;43.226;27.932;2023-04-24T11:36:34;17.07;62.93
77839;SHT31;67034;43.226;27.932;2023-04-24T11:39:01;16.51;65.11
77839;SHT31;67034;43.226;27.932;2023-04-24T11:41:27;16.75;65.19
77839;SHT31;67034;43.226;27.932;2023-04-24T11:43:53;16.72;63.71
77839;SHT31;67034;43.226;27.932;2023-04-24T11:46:20;17.07;62.86
77839;SHT31;67034;43.226;27.932;2023-04-24T11:48:46;16.69;64.38
77839;SHT31;67034;43.226;27.932;2023-04-24T11:51:13;16.94;63.67
77839;SHT31;67034;43.226;27.932;2023-04-24T11:53:39;17.23;61.71
77839;SHT31;67034;43.226;27.932;2023-04-24T11:56:06;16.99;63.81
77839;SHT31;67034;43.226;27.932;2023-04-24T11:58:34;16.94;62.74
77839;SHT31;67034;43.226;27.932;2023-04-24T12:01:00;17.31;61.97
77839;SHT31;67034;43.226;27.932;2023-04-24T12:03:26;17.62;59.88
77839;SHT31;67034;43.226;27.932;2023-04-24T12:05:52;17.35;61.62
77839;SHT31;67034;43.226;27.932;2023-04-24T12:08:28;17.44;60.90
77839;SHT31;67034;43.226;27.932;2023-04-24T12:11:00;17.51;58.98
77839;SHT31;67034;43.226;27.932;2023-04-24T12:13:26;16.93;62.36
77839;SHT31;67034;43.226;27.932;2023-04-24T12:15:52;17.13;63.21
77839;SHT31;67034;43.226;27.932;2023-04-24T12:18:17;16.84;62.24
77839;SHT31;67034;43.226;27.932;2023-04-24T12:20:43;16.68;61.72
77839;SHT31;67034;43.226;27.932;2023-04-24T12:23:09;16.51;64.50
77839;SHT31;67034;43.226;27.932;2023-04-24T12:25:38;16.52;63.53
77839;SHT31;67034;43.226;27.932;2023-04-24T12:28:12;16.21;65.31
77839;SHT31;67034;43.226;27.932;2023-04-24T12:30:40;16.40;65.65
77839;SHT31;67034;43.226;27.932;2023-04-24T12:33:06;16.96;62.76
77839;SHT31;67034;43.226;27.932;2023-04-24T12:35:33;17.07;63.61
77839;SHT31;67034;43.226;27.932;2023-04-24T12:38:05;17.34;61.82
77839;SHT31;67034;43.226;27.932;2023-04-24T12:40:33;17.65;60.72
77839;SHT31;67034;43.226;27.932;2023-04-24T12:43:00;17.67;60.37
77839;SHT31;67034;43.226;27.932;2023-04-24T12:45:26;17.23;62.26
77839;SHT31;67034;43.226;27.932;2023-04-24T12:47:53;17.32;62.18
77839;SHT31;67034;43.226;27.932;2023-04-24T12:50:19;17.41;62.28
77839;SHT31;67034;43.226;27.932;2023-04-24T12:52:45;17.48;61.75
77839;SHT31;67034;43.226;27.932;2023-04-24T12:55:11;17.17;62.55
77839;SHT31;67034;43.226;27.932;2023-04-24T12:57:38;17.00;62.47
77839;SHT31;67034;43.226;27.932;2023-04-24T13:00:08;16.34;65.08
77839;SHT31;67034;43.226;27.932;2023-04-24T13:02:34;16.26;66.43
77839;SHT31;67034;43.226;27.932;2023-04-24T13:05:00;16.65;64.59
77839;SHT31;67034;43.226;27.932;2023-04-24T13:07:26;16.96;62.88
77839;SHT31;67034;43.226;27.932;2023-04-24T13:09:54;17.03;62.57
77839;SHT31;67034;43.226;27.932;2023-04-24T13:12:20;16.35;64.04
77839;SHT31;67034;43.226;27.932;2023-04-24T13:14:46;16.03;65.15
77839;SHT31;67034;43.226;27.932;2023-04-24T13:17:13;15.76;66.07
77839;SHT31;67034;43.226;27.932;2023-04-24T13:19:42;16.00;65.31
77839;SHT31;67034;43.226;27.932;2023-04-24T13:22:09;15.42;67.94
77839;SHT31;67034;43.226;27.932;2023-04-24T13:24:35;15.50;68.62
77839;SHT31;67034;43.226;27.932;2023-04-24T13:27:01;16.10;66.88
77839;SHT31;67034;43.226;27.932;2023-04-24T13:29:28;16.25;65.28
77839;SHT31;67034;43.226;27.932;2023-04-24T13:31:54;15.89;65.87
77839;SHT31;67034;43.226;27.932;2023-04-24T13:34:24;16.04;67.17
77839;SHT31;67034;43.226;27.932;2023-04-24T13:36:51;16.72;64.19
77839;SHT31;67034;43.226;27.932;2023-04-24T13:39:16;16.32;64.92
77839;SHT31;67034;43.226;27.932;2023-04-24T13:41:42;16.73;64.57
77839;SHT31;67034;43.226;27.932;2023-04-24T13:44:08;16.49;64.33
77839;SHT31;67034;43.226;27.932;2023-04-24T13:46:34;16.45;65.12
77839;SHT31;67034;43.226;27.932;2023-04-24T13:49:02;16.80;64.09
77839;SHT31;67034;43.226;27.932;2023-04-24T13:51:30;16.48;64.56
77839;SHT31;67034;43.226;27.932;2023-04-24T13:53:56;16.20;66.08
77839;SHT31;67034;43.226;27.932;2023-04-24T13:56:22;16.26;64.63
77839;SHT31;67034;43.226;27.932;2023-04-24T13:58:48;16.40;64.38
77839;SHT31;67034;43.226;27.932;2023-04-24T14:01:14;16.68;64.22
77839;SHT31;67034;43.226;27.932;2023-04-24T14:03:41;16.77;63.28
77839;SHT31;67034;43.226;27.932;2023-04-24T14:06:06;16.47;63.59
77839;SHT31;67034;43.226;27.932;2023-04-24T14:08:34;16.34;65.65
77839;SHT31;67034;43.226;27.932;2023-04-24T14:10:59;16.76;63.79
77839;SHT31;67034;43.226;27.932;2023-04-24T14:13:25;16.34;64.50
77839;SHT31;67034;43.226;27.932;2023-04-24T14:15:51;16.82;63.83
77839;SHT31;67034;43.226;27.932;2023-04-24T14:18:18;16.87;62.94
77839;SHT31;67034;43.226;27.932;2023-04-24T14:20:44;16.61;63.33
77839;SHT31;67034;43.226;27.932;2023-04-24T14:23:09;16.44;64.37
77839;SHT31;67034;43.226;27.932;2023-04-24T14:25:37;16.62;62.85
77839;SHT31;67034;43.226;27.932;2023-04-24T14:28:03;16.11;64.86
77839;SHT31;67034;43.226;27.932;2023-04-24T14:30:29;15.80;66.16
77839;SHT31;67034;43.226;27.932;2023-04-24T14:32:54;15.98;65.10
77839;SHT31;67034;43.226;27.932;2023-04-24T14:35:20;16.28;64.32
77839;SHT31;67034;43.226;27.932;2023-04-24T14:37:46;16.40;63.81
77839;SHT31;67034;43.226;27.932;2023-04-24T14:40:13;16.55;63.65
77839;SHT31;67034;43.226;27.932;2023-04-24T14:42:40;16.13;63.92
77839;SHT31;67034;43.226;27.932;2023-04-24T14:45:07;15.67;65.77
77839;SHT31;67034;43.226;27.932;2023-04-24T14:47:33;15.69;66.39
77839;SHT31;67034;43.226;27.932;2023-04-24T14:49:59;15.38;65.61
77839;SHT31;67034;43.226;27.932;2023-04-24T14:52:25;15.15;67.48
77839;SHT31;67034;43.226;27.932;2023-04-24T14:54:50;15.29;66.95
77839;SHT31;67034;43.226;27.932;2023-04-24T14:57:16;15.39;66.91
77839;SHT31;67034;43.226;27.932;2023-04-24T14:59:43;15.62;66.75
77839;SHT31;67034;43.226;27.932;2023-04-24T15:02:11;15.79;66.52
77839;SHT31;67034;43.226;27.932;2023-04-24T15:04:37;15.89;66.16
77839;SHT31;67034;43.226;27.932;2023-04-24T15:07:04;16.04;65.01
77839;SHT31;67034;43.226;27.932;2023-04-24T15:09:29;16.08;65.65
77839;SHT31;67034;43.226;27.932;2023-04-24T15:11:57;15.96;65.12
77839;SHT31;67034;43.226;27.932;2023-04-24T15:14:23;15.98;65.89
77839;SHT31;67034;43.226;27.932;2023-04-24T15:16:50;16.03;65.12